sensor_id;sensor_type;location;lat;lon;timestamp;pressure;altitude;pressure_sealevel;temperature;humidity
10806;BME280;5455;53.224;6.000;2023-08-08T00:02:14;101194.41;;;15.48;100.00
10806;BME280;5455;53.224;6.000;2023-08-08T00:04:41;101186.88;;;15.48;100.00
10806;BME280;5455;53.224;6.000;2023-08-08T00:07:08;101189.94;;;15.39;100.00
10806;BME280;5455;53.224;6.000;2023-08-08T00:09:35;101190.31;;;15.34;100.00
10806;BME280;5455;53.224;6.000;2023-08-08T00:12:03;101185.91;;;15.33;100.00
10806;BME280;5455;53.224;6.000;2023-08-08T00:14:30;101192.25;;;15.30;100.00
10806;BME280;5455;53.224;6.000;2023-08-08T00:16:57;101189.38;;;15.23;100.00
10806;BME280;5455;53.224;6.000;2023-08-08T00:19:24;101178.22;;;15.16;100.00
10806;BME280;5455;53.224;6.000;2023-08-08T00:21:51;101179.34;;;15.12;100.00
10806;BME280;5455;53.224;6.000;2023-08-08T00:24:18;101182.84;;;15.05;100.00
10806;BME280;5455;53.224;6.000;2023-08-08T00:26:44;101184.00;;;15.01;100.00
10806;BME280;5455;53.224;6.000;2023-08-08T00:29:12;101184.75;;;14.98;100.00
10806;BME280;5455;53.224;6.000;2023-08-08T00:31:39;101182.34;;;14.96;100.00
10806;BME280;5455;53.224;6.000;2023-08-08T00:34:06;101176.75;;;14.89;100.00
10806;BME280;5455;53.224;6.000;2023-08-08T00:36:33;101175.53;;;14.86;100.00
10806;BME280;5455;53.224;6.000;2023-08-08T00:39:00;101175.53;;;14.86;100.00
10806;BME280;5455;53.224;6.000;2023-08-08T00:41:28;101174.72;;;14.86;100.00
10806;BME280;5455;53.224;6.000;2023-08-08T00:43:54;101172.78;;;14.90;100.00
10806;BME280;5455;53.224;6.000;2023-08-08T00:46:22;101167.22;;;14.90;100.00
10806;BME280;5455;53.224;6.000;2023-08-08T00:48:54;101173.97;;;14.89;100.00
10806;BME280;5455;53.224;6.000;2023-08-08T00:51:21;101165.25;;;14.90;100.00
10806;BME280;5455;53.224;6.000;2023-08-08T00:53:49;101171.28;;;15.00;100.00
10806;BME280;5455;53.224;6.000;2023-08-08T00:56:17;101155.84;;;15.02;100.00
10806;BME280;5455;53.224;6.000;2023-08-08T00:58:44;101166.19;;;15.05;100.00
10806;BME280;5455;53.224;6.000;2023-08-08T01:01:17;101168.63;;;15.10;100.00
10806;BME280;5455;53.224;6.000;2023-08-08T01:03:45;101158.25;;;15.04;100.00
10806;BME280;5455;53.224;6.000;2023-08-08T01:06:25;101152.19;;;14.95;100.00
10806;BME280;5455;53.224;6.000;2023-08-08T01:08:58;101156.09;;;14.90;100.00
10806;BME280;5455;53.224;6.000;2023-08-08T01:11:28;101151.66;;;14.82;100.00
10806;BME280;5455;53.224;6.000;2023-08-08T01:13:58;101139.75;;;14.78;100.00
10806;BME280;5455;53.224;6.000;2023-08-08T01:16:26;101141.31;;;14.79;100.00
10806;BME280;5455;53.224;6.000;2023-08-08T01:18:56;101137.72;;;14.75;100.00
10806;BME280;5455;53.224;6.000;2023-08-08T01:21:25;101143.28;;;14.75;100.00
10806;BME280;5455;53.224;6.000;2023-08-08T01:26:43;101136.56;;;14.79;100.00
10806;BME280;5455;53.224;6.000;2023-08-08T01:29:10;101133.75;;;14.76;100.00
10806;BME280;5455;53.224;6.000;2023-08-08T01:31:36;101137.72;;;14.75;100.00
10806;BME280;5455;53.224;6.000;2023-08-08T01:34:04;101138.53;;;14.79;100.00
10806;BME280;5455;53.224;6.000;2023-08-08T01:36:57;101130.25;;;14.82;100.00
10806;BME280;5455;53.224;6.000;2023-08-08T01:39:25;101127.88;;;14.84;100.00
10806;BME280;5455;53.224;6.000;2023-08-08T01:41:56;101136.31;;;14.92;100.00
10806;BME280;5455;53.224;6.000;2023-08-08T01:44:26;101131.13;;;14.90;100.00
10806;BME280;5455;53.224;6.000;2023-08-08T01:46:53;101126.72;;;14.85;100.00
10806;BME280;5455;53.224;6.000;2023-08-08T01:49:20;101128.75;;;14.88;100.00
10806;BME280;5455;53.224;6.000;2023-08-08T01:51:48;101122.03;;;14.89;100.00
10806;BME280;5455;53.224;6.000;2023-08-08T01:54:18;101122.78;;;14.90;100.00
10806;BME280;5455;53.224;6.000;2023-08-08T01:56:45;101121.25;;;14.93;100.00
10806;BME280;5455;53.224;6.000;2023-08-08T01:59:12;101114.13;;;14.95;100.00
10806;BME280;5455;53.224;6.000;2023-08-08T02:01:42;101116.88;;;14.92;100.00
10806;BME280;5455;53.224;6.000;2023-08-08T02:04:09;101115.72;;;14.96;100.00
10806;BME280;5455;53.224;6.000;2023-08-08T02:06:36;101114.16;;;14.99;100.00
10806;BME280;5455;53.224;6.000;2023-08-08T02:09:03;101112.28;;;15.10;100.00
10806;BME280;5455;53.224;6.000;2023-08-08T02:11:30;101123.84;;;15.15;100.00
10806;BME280;5455;53.224;6.000;2023-08-08T02:13:57;101125.94;;;15.29;100.00
10806;BME280;5455;53.224;6.000;2023-08-08T02:16:24;101119.25;;;15.37;100.00
10806;BME280;5455;53.224;6.000;2023-08-08T02:18:52;101111.66;;;15.30;100.00
10806;BME280;5455;53.224;6.000;2023-08-08T02:21:19;101118.31;;;15.19;100.00
10806;BME280;5455;53.224;6.000;2023-08-08T02:23:48;101115.44;;;15.08;100.00
10806;BME280;5455;53.224;6.000;2023-08-08T02:26:15;101117.75;;;15.03;100.00
10806;BME280;5455;53.224;6.000;2023-08-08T02:28:42;101108.53;;;14.92;100.00
10806;BME280;5455;53.224;6.000;2023-08-08T02:31:10;101117.59;;;14.85;100.00
10806;BME280;5455;53.224;6.000;2023-08-08T02:33:36;101112.03;;;14.85;100.00
10806;BME280;5455;53.224;6.000;2023-08-08T02:36:04;101094.25;;;14.89;100.00
10806;BME280;5455;53.224;6.000;2023-08-08T02:38:31;101098.16;;;14.85;100.00
10806;BME280;5455;53.224;6.000;2023-08-08T02:40:57;101095.50;;;14.99;100.00
10806;BME280;5455;53.224;6.000;2023-08-08T02:43:24;101088.69;;;14.89;100.00
10806;BME280;5455;53.224;6.000;2023-08-08T02:45:52;101088.56;;;14.79;100.00
10806;BME280;5455;53.224;6.000;2023-08-08T02:48:19;101081.38;;;14.71;100.00
10806;BME280;5455;53.224;6.000;2023-08-08T02:50:46;101074.91;;;14.60;100.00
10806;BME280;5455;53.224;6.000;2023-08-08T02:53:14;101074.03;;;14.52;100.00
10806;BME280;5455;53.224;6.000;2023-08-08T02:55:44;101075.59;;;14.50;100.00
10806;BME280;5455;53.224;6.000;2023-08-08T02:58:11;101067.22;;;14.46;100.00
10806;BME280;5455;53.224;6.000;2023-08-08T03:00:39;101075.06;;;14.37;100.00
10806;BME280;5455;53.224;6.000;2023-08-08T03:03:09;101075.31;;;14.28;100.00
10806;BME280;5455;53.224;6.000;2023-08-08T03:05:36;101074.91;;;14.26;100.00
10806;BME280;5455;53.224;6.000;2023-08-08T03:08:04;101069.66;;;14.18;100.00
10806;BME280;5455;53.224;6.000;2023-08-08T03:10:32;101069.19;;;14.12;100.00
10806;BME280;5455;53.224;6.000;2023-08-08T03:12:59;101071.94;;;14.12;100.00
10806;BME280;5455;53.224;6.000;2023-08-08T03:15:26;101067.91;;;14.06;100.00
10806;BME280;5455;53.224;6.000;2023-08-08T03:17:54;101064.97;;;13.92;100.00
10806;BME280;5455;53.224;6.000;2023-08-08T03:20:23;101066.22;;;13.98;100.00
10806;BME280;5455;53.224;6.000;2023-08-08T03:22:50;101071.66;;;13.91;100.00
10806;BME280;5455;53.224;6.000;2023-08-08T03:25:17;101072.00;;;13.86;100.00
10806;BME280;5455;53.224;6.000;2023-08-08T03:27:44;101074.31;;;13.80;100.00
10806;BME280;5455;53.224;6.000;2023-08-08T03:30:14;101072.00;;;13.86;100.00
10806;BME280;5455;53.224;6.000;2023-08-08T03:32:43;101067.69;;;13.89;100.00
10806;BME280;5455;53.224;6.000;2023-08-08T03:35:10;101070.16;;;13.97;100.00
10806;BME280;5455;53.224;6.000;2023-08-08T03:37:39;101060.34;;;14.03;100.00
10806;BME280;5455;53.224;6.000;2023-08-08T03:40:07;101056.03;;;14.06;100.00
10806;BME280;5455;53.224;6.000;2023-08-08T03:42:37;101059.97;;;14.05;100.00
10806;BME280;5455;53.224;6.000;2023-08-08T03:45:04;101054.78;;;14.03;100.00
10806;BME280;5455;53.224;6.000;2023-08-08T03:47:32;101046.53;;;14.07;100.00
10806;BME280;5455;53.224;6.000;2023-08-08T03:50:00;101050.16;;;14.11;100.00
10806;BME280;5455;53.224;6.000;2023-08-08T03:52:28;101045.41;;;14.11;100.00
10806;BME280;5455;53.224;6.000;2023-08-08T03:54:56;101041.88;;;14.14;100.00
10806;BME280;5455;53.224;6.000;2023-08-08T03:57:24;101042.69;;;14.15;100.00
10806;BME280;5455;53.224;6.000;2023-08-08T03:59:51;101041.16;;;14.21;100.00
10806;BME280;5455;53.224;6.000;2023-08-08T04:02:19;101033.22;;;14.19;100.00
10806;BME280;5455;53.224;6.000;2023-08-08T04:04:47;101034.81;;;14.20;100.00
10806;BME280;5455;53.224;6.000;2023-08-08T04:07:14;101036.91;;;14.30;100.00
10806;BME280;5455;53.224;6.000;2023-08-08T04:09:41;101023.78;;;14.27;100.00
10806;BME280;5455;53.224;6.000;2023-08-08T04:12:08;101031.31;;;14.27;100.00
10806;BME280;5455;53.224;6.000;2023-08-08T04:14:35;101024.19;;;14.26;100.00
10806;BME280;5455;53.224;6.000;2023-08-08T04:17:02;101029.28;;;14.24;100.00
10806;BME280;5455;53.224;6.000;2023-08-08T04:19:31;101028.56;;;14.30;100.00
10806;BME280;5455;53.224;6.000;2023-08-08T04:21:58;101023.50;;;14.32;100.00
10806;BME280;5455;53.224;6.000;2023-08-08T04:24:25;101027.00;;;14.29;100.00
10806;BME280;5455;53.224;6.000;2023-08-08T04:26:52;101028.53;;;14.27;100.00
10806;BME280;5455;53.224;6.000;2023-08-08T04:29:19;101023.50;;;14.32;100.00
10806;BME280;5455;53.224;6.000;2023-08-08T04:31:46;101031.28;;;14.23;100.00
10806;BME280;5455;53.224;6.000;2023-08-08T04:34:13;101022.53;;;14.21;100.00
10806;BME280;5455;53.224;6.000;2023-08-08T04:36:40;101022.88;;;14.16;100.00
10806;BME280;5455;53.224;6.000;2023-08-08T04:39:07;101030.34;;;14.12;100.00
10806;BME280;5455;53.224;6.000;2023-08-08T04:41:34;101033.56;;;14.14;100.00
10806;BME280;5455;53.224;6.000;2023-08-08T04:44:00;101030.75;;;14.11;100.00
10806;BME280;5455;53.224;6.000;2023-08-08T04:46:28;101028.34;;;14.09;100.00
10806;BME280;5455;53.224;6.000;2023-08-08T04:48:56;101024.94;;;14.23;100.00
10806;BME280;5455;53.224;6.000;2023-08-08T04:51:24;101019.00;;;14.21;100.00
10806;BME280;5455;53.224;6.000;2023-08-08T04:53:51;101020.59;;;14.25;100.00
10806;BME280;5455;53.224;6.000;2023-08-08T04:56:18;101013.63;;;14.35;100.00
10806;BME280;5455;53.224;6.000;2023-08-08T04:58:44;101014.06;;;14.41;100.00
10806;BME280;5455;53.224;6.000;2023-08-08T05:01:11;101009.00;;;14.50;100.00
10806;BME280;5455;53.224;6.000;2023-08-08T05:03:41;101001.47;;;14.50;100.00
10806;BME280;5455;53.224;6.000;2023-08-08T05:06:08;101007.06;;;14.54;100.00
10806;BME280;5455;53.224;6.000;2023-08-08T05:08:35;101002.41;;;14.65;100.00
10806;BME280;5455;53.224;6.000;2023-08-08T05:11:02;101010.00;;;14.71;100.00
10806;BME280;5455;53.224;6.000;2023-08-08T05:13:29;101010.09;;;14.82;100.00
10806;BME280;5455;53.224;6.000;2023-08-08T05:15:56;101005.81;;;14.92;100.00
10806;BME280;5455;53.224;6.000;2023-08-08T05:18:23;101007.06;;;15.01;100.00
10806;BME280;5455;53.224;6.000;2023-08-08T05:20:50;101011.13;;;15.11;100.00
10806;BME280;5455;53.224;6.000;2023-08-08T05:23:17;101005.72;;;15.32;100.00
10806;BME280;5455;53.224;6.000;2023-08-08T05:25:45;101012.09;;;15.39;100.00
10806;BME280;5455;53.224;6.000;2023-08-08T05:28:11;101007.03;;;15.49;100.00
10806;BME280;5455;53.224;6.000;2023-08-08T05:30:38;101009.88;;;15.63;100.00
10806;BME280;5455;53.224;6.000;2023-08-08T05:33:05;101012.34;;;15.78;100.00
10806;BME280;5455;53.224;6.000;2023-08-08T05:35:33;101013.19;;;15.93;100.00
10806;BME280;5455;53.224;6.000;2023-08-08T05:37:59;101013.22;;;15.96;100.00
10806;BME280;5455;53.224;6.000;2023-08-08T05:40:27;101011.16;;;15.86;100.00
10806;BME280;5455;53.224;6.000;2023-08-08T05:42:53;101012.28;;;15.68;100.00
10806;BME280;5455;53.224;6.000;2023-08-08T05:45:20;101008.66;;;15.57;100.00
10806;BME280;5455;53.224;6.000;2023-08-08T05:47:47;101007.84;;;15.53;100.00
10806;BME280;5455;53.224;6.000;2023-08-08T05:50:14;101009.44;;;15.50;100.00
10806;BME280;5455;53.224;6.000;2023-08-08T05:52:41;101011.72;;;15.41;100.00
10806;BME280;5455;53.224;6.000;2023-08-08T05:55:08;101012.59;;;15.49;100.00
10806;BME280;5455;53.224;6.000;2023-08-08T05:57:36;101016.16;;;15.49;100.00
10806;BME280;5455;53.224;6.000;2023-08-08T06:00:04;101017.75;;;15.50;100.00
10806;BME280;5455;53.224;6.000;2023-08-08T06:02:38;101013.03;;;15.58;100.00
10806;BME280;5455;53.224;6.000;2023-08-08T06:05:05;101009.47;;;15.61;100.00
10806;BME280;5455;53.224;6.000;2023-08-08T06:07:33;101011.88;;;15.66;100.00
10806;BME280;5455;53.224;6.000;2023-08-08T06:10:00;101013.91;;;15.72;100.00
10806;BME280;5455;53.224;6.000;2023-08-08T06:12:27;101011.09;;;15.69;100.00
10806;BME280;5455;53.224;6.000;2023-08-08T06:14:53;101011.91;;;15.73;100.00
10806;BME280;5455;53.224;6.000;2023-08-08T06:17:20;101010.75;;;15.81;100.00
10806;BME280;5455;53.224;6.000;2023-08-08T06:19:50;101008.38;;;15.86;100.00
10806;BME280;5455;53.224;6.000;2023-08-08T06:22:17;101017.56;;;15.90;100.00
10806;BME280;5455;53.224;6.000;2023-08-08T06:24:44;101016.78;;;15.97;100.00
10806;BME280;5455;53.224;6.000;2023-08-08T06:27:12;101013.25;;;16.07;100.00
10806;BME280;5455;53.224;6.000;2023-08-08T06:29:40;101014.88;;;16.19;100.00
10806;BME280;5455;53.224;6.000;2023-08-08T06:32:07;101018.88;;;16.21;100.00
10806;BME280;5455;53.224;6.000;2023-08-08T06:34:35;101014.09;;;16.29;100.00
10806;BME280;5455;53.224;6.000;2023-08-08T06:37:02;101009.38;;;16.40;100.00
10806;BME280;5455;53.224;6.000;2023-08-08T06:39:29;101024.47;;;16.49;100.00
10806;BME280;5455;53.224;6.000;2023-08-08T06:41:56;101015.41;;;16.63;100.00
10806;BME280;5455;53.224;6.000;2023-08-08T06:44:41;101006.66;;;16.86;100.00
10806;BME280;5455;53.224;6.000;2023-08-08T06:47:10;101014.19;;;17.28;100.00
10806;BME280;5455;53.224;6.000;2023-08-08T06:49:38;101017.75;;;17.42;100.00
10806;BME280;5455;53.224;6.000;2023-08-08T06:52:05;101006.22;;;17.23;100.00
10806;BME280;5455;53.224;6.000;2023-08-08T06:54:32;101008.22;;;17.33;100.00
10806;BME280;5455;53.224;6.000;2023-08-08T06:57:00;101014.56;;;17.51;100.00
10806;BME280;5455;53.224;6.000;2023-08-08T06:59:29;101011.78;;;17.44;100.00
10806;BME280;5455;53.224;6.000;2023-08-08T07:01:56;101013.38;;;17.34;100.00
10806;BME280;5455;53.224;6.000;2023-08-08T07:04:23;101014.13;;;17.52;100.00
10806;BME280;5455;53.224;6.000;2023-08-08T07:06:50;101015.28;;;17.80;100.00
10806;BME280;5455;53.224;6.000;2023-08-08T07:09:17;101020.34;;;18.06;100.00
10806;BME280;5455;53.224;6.000;2023-08-08T07:11:45;101010.75;;;18.14;100.00
10806;BME280;5455;53.224;6.000;2023-08-08T07:14:12;101018.69;;;18.23;100.00
10806;BME280;5455;53.224;6.000;2023-08-08T07:16:39;101019.03;;;18.32;100.00
10806;BME280;5455;53.224;6.000;2023-08-08T07:19:06;101023.44;;;18.29;100.00
10806;BME280;5455;53.224;6.000;2023-08-08T07:21:33;101024.13;;;18.47;100.00
10806;BME280;5455;53.224;6.000;2023-08-08T07:24:00;101010.94;;;18.48;100.00
10806;BME280;5455;53.224;6.000;2023-08-08T07:26:27;101010.59;;;18.39;100.00
10806;BME280;5455;53.224;6.000;2023-08-08T07:28:54;101015.00;;;18.40;100.00
10806;BME280;5455;53.224;6.000;2023-08-08T07:31:21;101021.38;;;18.40;100.00
10806;BME280;5455;53.224;6.000;2023-08-08T07:33:48;101013.81;;;18.37;100.00
10806;BME280;5455;53.224;6.000;2023-08-08T07:36:14;101009.75;;;18.45;100.00
10806;BME280;5455;53.224;6.000;2023-08-08T07:38:41;101021.75;;;18.49;100.00
10806;BME280;5455;53.224;6.000;2023-08-08T07:41:08;101020.19;;;18.41;100.00
10806;BME280;5455;53.224;6.000;2023-08-08T07:43:36;101013.34;;;18.56;100.00
10806;BME280;5455;53.224;6.000;2023-08-08T07:46:03;101011.59;;;18.73;100.00
10806;BME280;5455;53.224;6.000;2023-08-08T07:48:31;101014.28;;;18.87;100.00
10806;BME280;5455;53.224;6.000;2023-08-08T07:50:58;101019.47;;;18.89;100.00
10806;BME280;5455;53.224;6.000;2023-08-08T07:53:25;101009.28;;;18.64;100.00
10806;BME280;5455;53.224;6.000;2023-08-08T07:55:52;101016.97;;;18.50;100.00
10806;BME280;5455;53.224;6.000;2023-08-08T07:58:19;101005.78;;;18.43;100.00
10806;BME280;5455;53.224;6.000;2023-08-08T08:00:48;101016.53;;;18.48;100.00
10806;BME280;5455;53.224;6.000;2023-08-08T08:03:15;101015.94;;;18.78;100.00
10806;BME280;5455;53.224;6.000;2023-08-08T08:05:42;101005.19;;;18.76;100.00
10806;BME280;5455;53.224;6.000;2023-08-08T08:08:09;101012.31;;;18.84;100.00
10806;BME280;5455;53.224;6.000;2023-08-08T08:10:36;101010.41;;;18.74;100.00
10806;BME280;5455;53.224;6.000;2023-08-08T08:13:03;101014.03;;;18.71;100.00
10806;BME280;5455;53.224;6.000;2023-08-08T08:15:30;101015.13;;;18.81;100.00
10806;BME280;5455;53.224;6.000;2023-08-08T08:17:57;101015.84;;;18.92;100.00
10806;BME280;5455;53.224;6.000;2023-08-08T08:20:24;101017.41;;;18.96;100.00
10806;BME280;5455;53.224;6.000;2023-08-08T08:22:52;101010.19;;;18.99;100.00
10806;BME280;5455;53.224;6.000;2023-08-08T08:25:19;101002.19;;;19.01;100.00
10806;BME280;5455;53.224;6.000;2023-08-08T08:27:46;101013.09;;;19.29;100.00
10806;BME280;5455;53.224;6.000;2023-08-08T08:30:13;101013.91;;;19.30;100.00
10806;BME280;5455;53.224;6.000;2023-08-08T08:32:43;101001.06;;;19.36;100.00
10806;BME280;5455;53.224;6.000;2023-08-08T08:35:10;101017.56;;;19.23;100.00
10806;BME280;5455;53.224;6.000;2023-08-08T08:37:39;101008.16;;;19.03;100.00
10806;BME280;5455;53.224;6.000;2023-08-08T08:40:06;101013.75;;;18.51;100.00
10806;BME280;5455;53.224;6.000;2023-08-08T08:42:34;101014.38;;;18.11;100.00
10806;BME280;5455;53.224;6.000;2023-08-08T08:45:04;101014.03;;;17.88;100.00
10806;BME280;5455;53.224;6.000;2023-08-08T08:47:32;101006.03;;;17.97;100.00
10806;BME280;5455;53.224;6.000;2023-08-08T08:50:03;101001.97;;;18.15;100.00
10806;BME280;5455;53.224;6.000;2023-08-08T08:52:30;100999.41;;;18.42;100.00
10806;BME280;5455;53.224;6.000;2023-08-08T08:54:57;101001.38;;;19.04;100.00
10806;BME280;5455;53.224;6.000;2023-08-08T08:57:24;101004.31;;;19.68;100.00
10806;BME280;5455;53.224;6.000;2023-08-08T08:59:52;101012.38;;;19.96;100.00
10806;BME280;5455;53.224;6.000;2023-08-08T09:02:19;100996.72;;;20.02;100.00
10806;BME280;5455;53.224;6.000;2023-08-08T09:04:46;101001.84;;;20.07;100.00
10806;BME280;5455;53.224;6.000;2023-08-08T09:07:14;101007.59;;;19.97;100.00
10806;BME280;5455;53.224;6.000;2023-08-08T09:09:43;101012.13;;;19.84;100.00
10806;BME280;5455;53.224;6.000;2023-08-08T09:12:10;101004.38;;;19.64;100.00
10806;BME280;5455;53.224;6.000;2023-08-08T09:14:40;101010.16;;;19.80;100.00
10806;BME280;5455;53.224;6.000;2023-08-08T09:17:11;101010.16;;;20.14;100.00
10806;BME280;5455;53.224;6.000;2023-08-08T09:19:43;101013.25;;;19.90;100.00
10806;BME280;5455;53.224;6.000;2023-08-08T09:22:12;101024.34;;;19.66;100.00
10806;BME280;5455;53.224;6.000;2023-08-08T09:24:40;101013.41;;;19.38;100.00
10806;BME280;5455;53.224;6.000;2023-08-08T09:27:08;101027.38;;;19.38;100.00
10806;BME280;5455;53.224;6.000;2023-08-08T09:29:37;101020.84;;;19.11;100.00
10806;BME280;5455;53.224;6.000;2023-08-08T09:32:07;101026.50;;;18.56;100.00
10806;BME280;5455;53.224;6.000;2023-08-08T09:34:34;101032.22;;;18.21;100.00
10806;BME280;5455;53.224;6.000;2023-08-08T09:37:01;101035.53;;;18.01;100.00
10806;BME280;5455;53.224;6.000;2023-08-08T09:39:29;101036.63;;;18.25;100.00
10806;BME280;5455;53.224;6.000;2023-08-08T09:41:56;101027.44;;;18.28;100.00
10806;BME280;5455;53.224;6.000;2023-08-08T09:44:24;101018.00;;;18.74;100.00
10806;BME280;5455;53.224;6.000;2023-08-08T09:46:53;101018.69;;;19.29;100.00
10806;BME280;5455;53.224;6.000;2023-08-08T09:49:21;101028.78;;;19.98;100.00
10806;BME280;5455;53.224;6.000;2023-08-08T09:51:49;101022.19;;;20.68;100.00
10806;BME280;5455;53.224;6.000;2023-08-08T09:54:17;101027.44;;;20.66;100.00
10806;BME280;5455;53.224;6.000;2023-08-08T09:56:44;101038.44;;;20.23;100.00
10806;BME280;5455;53.224;6.000;2023-08-08T09:59:11;101044.59;;;19.77;98.80
10806;BME280;5455;53.224;6.000;2023-08-08T10:01:40;101050.94;;;19.82;100.00
10806;BME280;5455;53.224;6.000;2023-08-08T10:04:09;101055.97;;;19.60;92.79
10806;BME280;5455;53.224;6.000;2023-08-08T10:06:37;101060.28;;;19.23;95.68
10806;BME280;5455;53.224;6.000;2023-08-08T10:09:04;101046.91;;;19.01;94.78
10806;BME280;5455;53.224;6.000;2023-08-08T10:11:31;101059.81;;;18.81;97.24
10806;BME280;5455;53.224;6.000;2023-08-08T10:14:02;101056.72;;;18.72;96.92
10806;BME280;5455;53.224;6.000;2023-08-08T10:16:32;101052.78;;;18.62;98.53
10806;BME280;5455;53.224;6.000;2023-08-08T10:19:01;101054.84;;;18.47;98.94
10806;BME280;5455;53.224;6.000;2023-08-08T10:21:36;101053.06;;;18.78;99.69
10806;BME280;5455;53.224;6.000;2023-08-08T10:24:05;101052.84;;;19.06;98.36
10806;BME280;5455;53.224;6.000;2023-08-08T10:26:33;101049.59;;;19.15;94.12
10806;BME280;5455;53.224;6.000;2023-08-08T10:29:01;101050.47;;;19.05;91.73
10806;BME280;5455;53.224;6.000;2023-08-08T10:31:33;101050.09;;;19.03;90.63
10806;BME280;5455;53.224;6.000;2023-08-08T10:34:03;101060.16;;;19.41;89.82
10806;BME280;5455;53.224;6.000;2023-08-08T10:36:47;101057.19;;;19.59;88.07
10806;BME280;5455;53.224;6.000;2023-08-08T10:39:16;101062.84;;;19.55;82.08
10806;BME280;5455;53.224;6.000;2023-08-08T10:41:50;101067.00;;;19.33;85.70
10806;BME280;5455;53.224;6.000;2023-08-08T10:44:24;101052.59;;;18.87;85.50
10806;BME280;5455;53.224;6.000;2023-08-08T10:46:52;101051.38;;;18.91;88.77
10806;BME280;5455;53.224;6.000;2023-08-08T10:49:23;101060.78;;;19.11;87.77
10806;BME280;5455;53.224;6.000;2023-08-08T10:51:50;101045.91;;;19.25;89.04
10806;BME280;5455;53.224;6.000;2023-08-08T10:54:22;101045.78;;;19.36;83.36
10806;BME280;5455;53.224;6.000;2023-08-08T10:56:53;101045.97;;;19.18;81.41
10806;BME280;5455;53.224;6.000;2023-08-08T10:59:22;101058.63;;;19.30;82.62
10806;BME280;5455;53.224;6.000;2023-08-08T11:01:51;101074.72;;;19.63;80.61
10806;BME280;5455;53.224;6.000;2023-08-08T11:04:23;101057.94;;;19.63;79.51
10806;BME280;5455;53.224;6.000;2023-08-08T11:06:53;101068.78;;;19.57;77.63
10806;BME280;5455;53.224;6.000;2023-08-08T11:09:21;101053.25;;;19.53;81.48
10806;BME280;5455;53.224;6.000;2023-08-08T11:11:49;101047.47;;;20.04;84.29
10806;BME280;5455;53.224;6.000;2023-08-08T11:14:18;101067.81;;;20.08;78.25
10806;BME280;5455;53.224;6.000;2023-08-08T11:16:47;101040.38;;;19.96;79.67
10806;BME280;5455;53.224;6.000;2023-08-08T11:19:14;101052.63;;;19.75;80.70
10806;BME280;5455;53.224;6.000;2023-08-08T11:21:44;101053.97;;;19.98;80.67
10806;BME280;5455;53.224;6.000;2023-08-08T11:24:12;101053.22;;;20.24;81.70
10806;BME280;5455;53.224;6.000;2023-08-08T11:26:40;101057.13;;;20.00;76.77
10806;BME280;5455;53.224;6.000;2023-08-08T11:29:07;101050.38;;;19.97;80.25
10806;BME280;5455;53.224;6.000;2023-08-08T11:31:35;101049.34;;;20.14;83.31
10806;BME280;5455;53.224;6.000;2023-08-08T11:34:03;101031.59;;;20.28;78.48
10806;BME280;5455;53.224;6.000;2023-08-08T11:36:35;101059.66;;;20.21;76.23
10806;BME280;5455;53.224;6.000;2023-08-08T11:39:04;101045.38;;;20.46;77.31
10806;BME280;5455;53.224;6.000;2023-08-08T11:41:35;101036.22;;;20.68;78.02
10806;BME280;5455;53.224;6.000;2023-08-08T11:44:03;101060.50;;;20.18;79.02
10806;BME280;5455;53.224;6.000;2023-08-08T11:46:31;101054.91;;;19.47;84.72
10806;BME280;5455;53.224;6.000;2023-08-08T11:49:05;101063.03;;;19.31;91.38
10806;BME280;5455;53.224;6.000;2023-08-08T11:51:34;101059.44;;;19.30;92.73
10806;BME280;5455;53.224;6.000;2023-08-08T11:54:02;101057.16;;;19.18;94.49
10806;BME280;5455;53.224;6.000;2023-08-08T11:56:33;101051.38;;;19.39;93.69
10806;BME280;5455;53.224;6.000;2023-08-08T11:59:01;101065.91;;;20.02;91.21
10806;BME280;5455;53.224;6.000;2023-08-08T12:01:32;101071.81;;;20.41;81.56
10806;BME280;5455;53.224;6.000;2023-08-08T12:04:05;101060.06;;;20.19;77.04
10806;BME280;5455;53.224;6.000;2023-08-08T12:06:36;101068.81;;;20.82;78.89
10806;BME280;5455;53.224;6.000;2023-08-08T12:09:06;101071.16;;;21.37;75.48
10806;BME280;5455;53.224;6.000;2023-08-08T12:11:36;101077.88;;;21.20;69.38
10806;BME280;5455;53.224;6.000;2023-08-08T12:14:09;101070.00;;;20.84;70.11
10806;BME280;5455;53.224;6.000;2023-08-08T12:16:38;101065.31;;;20.78;70.43
10806;BME280;5455;53.224;6.000;2023-08-08T12:19:09;101067.63;;;20.56;73.26
10806;BME280;5455;53.224;6.000;2023-08-08T12:21:38;101066.88;;;21.06;74.67
10806;BME280;5455;53.224;6.000;2023-08-08T12:24:06;101077.88;;;21.20;71.88
10806;BME280;5455;53.224;6.000;2023-08-08T12:26:33;101071.50;;;21.39;70.83
10806;BME280;5455;53.224;6.000;2023-08-08T12:28:59;101083.50;;;21.20;68.41
10806;BME280;5455;53.224;6.000;2023-08-08T12:31:26;101077.88;;;21.20;72.58
10806;BME280;5455;53.224;6.000;2023-08-08T12:33:54;101085.34;;;21.30;71.10
10806;BME280;5455;53.224;6.000;2023-08-08T12:36:21;101080.78;;;21.13;70.92
10806;BME280;5455;53.224;6.000;2023-08-08T12:38:48;101081.00;;;20.72;71.84
10806;BME280;5455;53.224;6.000;2023-08-08T12:41:15;101077.19;;;20.28;72.93
10806;BME280;5455;53.224;6.000;2023-08-08T12:43:45;101077.97;;;20.59;76.68
10806;BME280;5455;53.224;6.000;2023-08-08T12:46:12;101077.94;;;20.63;74.95
10806;BME280;5455;53.224;6.000;2023-08-08T12:48:39;101084.94;;;20.48;72.83
10806;BME280;5455;53.224;6.000;2023-08-08T12:51:06;101085.03;;;20.07;73.89
10806;BME280;5455;53.224;6.000;2023-08-08T12:53:34;101100.56;;;19.77;77.68
10806;BME280;5455;53.224;6.000;2023-08-08T12:56:02;101082.19;;;19.76;78.99
10806;BME280;5455;53.224;6.000;2023-08-08T12:58:29;101083.19;;;19.93;77.07
10806;BME280;5455;53.224;6.000;2023-08-08T13:00:56;101081.03;;;20.08;75.95